createdAt,value
2023-06-30T05:01:12.593Z,27.40
2023-06-30T05:02:12.580Z,27.41
2023-06-30T05:03:12.756Z,27.40
2023-06-30T05:04:12.614Z,27.40
2023-06-30T05:05:12.695Z,27.40
2023-06-30T05:06:12.731Z,27.38
2023-06-30T05:07:12.782Z,27.40
2023-06-30T05:08:12.741Z,27.41
2023-06-30T05:09:12.815Z,27.41
2023-06-30T05:10:12.826Z,27.40
2023-06-30T05:11:12.938Z,27.40
2023-06-30T05:12:12.968Z,27.42
2023-06-30T05:13:13.016Z,27.44
2023-06-30T05:14:13.054Z,27.42
2023-06-30T05:15:13.058Z,27.44
2023-06-30T05:16:13.330Z,27.44
2023-06-30T05:17:13.285Z,27.44
2023-06-30T05:18:13.196Z,27.44
2023-06-30T05:19:13.206Z,27.45
2023-06-30T05:20:13.261Z,27.44
2023-06-30T05:21:13.238Z,27.46
2023-06-30T05:22:13.314Z,27.48
2023-06-30T05:23:13.326Z,27.48
2023-06-30T05:24:13.373Z,27.48
2023-06-30T05:25:13.369Z,27.48
2023-06-30T05:26:13.393Z,27.49
2023-06-30T05:27:13.445Z,27.49
2023-06-30T05:28:13.492Z,27.49
2023-06-30T05:29:13.515Z,27.51
2023-06-30T05:30:13.542Z,27.49
2023-06-30T05:31:13.634Z,27.46
2023-06-30T05:32:13.603Z,27.49
2023-06-30T05:33:13.629Z,27.52
2023-06-30T05:34:13.641Z,27.49
2023-06-30T05:35:13.696Z,27.51
2023-06-30T05:36:13.719Z,27.51
2023-06-30T05:37:13.729Z,27.49
2023-06-30T05:38:13.732Z,27.52
2023-06-30T05:39:13.826Z,27.51
2023-06-30T05:40:13.801Z,27.48
2023-06-30T05:41:13.864Z,27.51
2023-06-30T05:42:13.855Z,27.51
2023-06-30T05:43:13.878Z,27.52
2023-06-30T05:44:13.944Z,27.52
2023-06-30T05:45:14.044Z,27.52
2023-06-30T05:46:13.970Z,27.52
2023-06-30T05:47:13.999Z,27.51
2023-06-30T05:48:14.005Z,27.51
2023-06-30T05:49:14.073Z,27.54
2023-06-30T05:50:14.148Z,27.52
2023-06-30T05:51:14.116Z,27.49
2023-06-30T05:52:14.167Z,27.49
2023-06-30T05:53:14.164Z,27.52
2023-06-30T05:54:14.212Z,27.55
2023-06-30T05:55:14.250Z,27.54
2023-06-30T05:56:14.277Z,27.54
2023-06-30T05:57:14.248Z,27.55
2023-06-30T05:58:14.263Z,27.56
2023-06-30T05:59:14.324Z,27.58
2023-06-30T06:00:14.410Z,27.56
2023-06-30T06:01:14.352Z,27.58
2023-06-30T06:02:14.407Z,27.61
2023-06-30T06:03:14.528Z,27.64
2023-06-30T06:04:14.521Z,27.65
2023-06-30T06:05:14.573Z,27.66
2023-06-30T06:06:14.505Z,27.68
2023-06-30T06:07:14.492Z,27.68
2023-06-30T06:08:14.490Z,27.68
2023-06-30T06:09:14.536Z,27.69
2023-06-30T06:10:14.528Z,27.66
2023-06-30T06:11:14.563Z,27.68
2023-06-30T06:12:14.593Z,27.68
2023-06-30T06:13:14.616Z,27.65
2023-06-30T06:14:14.613Z,27.66
2023-06-30T06:15:14.662Z,27.66
2023-06-30T06:16:14.687Z,27.66
2023-06-30T06:17:14.679Z,27.65
2023-06-30T06:18:14.686Z,27.64
2023-06-30T06:19:14.729Z,27.65
2023-06-30T06:20:14.712Z,27.61
2023-06-30T06:21:14.772Z,27.61
2023-06-30T06:22:14.832Z,27.59
2023-06-30T06:23:14.875Z,27.61
2023-06-30T06:24:14.807Z,27.62
2023-06-30T06:25:14.812Z,27.59
2023-06-30T06:26:14.842Z,27.59
2023-06-30T06:27:14.873Z,27.58
2023-06-30T06:28:14.884Z,27.59
2023-06-30T06:29:14.912Z,27.59
2023-06-30T06:30:14.982Z,27.59
2023-06-30T06:31:15.114Z,27.59
2023-06-30T06:32:14.993Z,27.56
2023-06-30T06:33:15.002Z,27.58
2023-06-30T06:34:15.057Z,27.59
2023-06-30T06:35:15.071Z,27.59
2023-06-30T06:36:15.095Z,27.56
2023-06-30T06:37:15.123Z,27.56
2023-06-30T06:38:15.182Z,27.55
2023-06-30T06:39:15.241Z,27.55
2023-06-30T06:40:15.189Z,27.52
2023-06-30T06:41:15.198Z,27.55
2023-06-30T06:42:15.273Z,27.52
2023-06-30T06:43:15.298Z,27.51
2023-06-30T06:44:15.363Z,27.54
2023-06-30T06:45:15.361Z,27.55
2023-06-30T06:46:15.389Z,27.55
2023-06-30T06:47:15.418Z,27.56
2023-06-30T06:48:15.440Z,27.55
2023-06-30T06:49:15.425Z,27.54
2023-06-30T06:50:15.463Z,27.55
2023-06-30T06:51:15.488Z,27.54
2023-06-30T06:52:15.511Z,27.56
2023-06-30T06:53:15.526Z,27.56
2023-06-30T06:54:15.546Z,27.54
2023-06-30T06:55:15.663Z,27.54
2023-06-30T06:56:15.597Z,27.54
2023-06-30T06:57:15.654Z,27.54
2023-06-30T06:58:15.670Z,27.54
2023-06-30T06:59:15.706Z,27.52
2023-06-30T07:00:15.708Z,27.52
2023-06-30T07:01:15.810Z,27.52
2023-06-30T07:02:15.874Z,27.45
2023-06-30T07:03:15.804Z,27.51
2023-06-30T07:04:15.864Z,27.49
2023-06-30T07:05:15.953Z,27.48
2023-06-30T07:06:15.927Z,27.52
2023-06-30T07:07:15.930Z,27.51
2023-06-30T07:08:15.920Z,27.49
2023-06-30T07:09:15.942Z,27.52
2023-06-30T07:10:15.976Z,27.48
2023-06-30T07:11:16.032Z,27.49
2023-06-30T07:12:16.025Z,27.48
2023-06-30T07:13:16.058Z,27.52
2023-06-30T07:14:16.092Z,27.49
2023-06-30T07:15:16.096Z,27.51
2023-06-30T07:16:16.178Z,27.52
2023-06-30T07:17:16.165Z,27.51
2023-06-30T07:18:16.246Z,27.51
2023-06-30T07:19:16.227Z,27.54
2023-06-30T07:20:16.222Z,27.52
2023-06-30T07:21:16.278Z,27.52
2023-06-30T07:22:16.312Z,27.55
2023-06-30T07:23:16.326Z,27.54
2023-06-30T07:24:16.345Z,27.54
2023-06-30T07:25:16.381Z,27.54
2023-06-30T07:26:16.401Z,27.54
2023-06-30T07:27:16.419Z,27.54
2023-06-30T07:28:16.416Z,27.52
2023-06-30T07:29:16.504Z,27.51
2023-06-30T07:30:16.487Z,27.54
2023-06-30T07:31:16.506Z,27.49
2023-06-30T07:32:16.530Z,27.49
2023-06-30T07:33:16.576Z,27.52
2023-06-30T07:34:16.602Z,27.51
2023-06-30T07:35:16.633Z,27.51
2023-06-30T07:36:16.682Z,27.51
2023-06-30T07:37:16.663Z,27.51
2023-06-30T07:38:16.725Z,27.51
2023-06-30T07:39:16.736Z,27.51
2023-06-30T07:40:17.450Z,27.51
2023-06-30T07:41:16.960Z,27.49
2023-06-30T07:42:16.792Z,27.51
2023-06-30T07:43:16.835Z,27.51
2023-06-30T07:44:16.859Z,27.49
2023-06-30T07:45:16.952Z,27.49
2023-06-30T07:46:16.932Z,27.49
2023-06-30T07:47:16.970Z,27.51
2023-06-30T07:48:17.004Z,27.49
2023-06-30T07:49:16.978Z,27.49
2023-06-30T07:50:17.057Z,27.49
2023-06-30T07:51:17.066Z,27.48
2023-06-30T07:52:17.078Z,27.49
2023-06-30T07:53:17.098Z,27.51
2023-06-30T07:54:17.164Z,27.49
2023-06-30T07:55:17.347Z,27.49
2023-06-30T07:56:17.186Z,27.52
2023-06-30T07:57:17.211Z,27.49
2023-06-30T07:58:17.224Z,27.51
2023-06-30T07:59:17.293Z,27.49
2023-06-30T08:00:17.298Z,27.54
2023-06-30T08:01:17.354Z,27.51
2023-06-30T08:02:17.350Z,27.52
2023-06-30T08:03:17.552Z,27.52
2023-06-30T08:04:17.571Z,27.55
2023-06-30T08:05:17.487Z,27.55
2023-06-30T08:06:17.521Z,27.56
2023-06-30T08:07:17.597Z,27.56
2023-06-30T08:08:17.492Z,27.56
2023-06-30T08:09:17.498Z,27.59
2023-06-30T08:10:17.586Z,27.61
2023-06-30T08:11:17.574Z,27.64
2023-06-30T08:12:17.559Z,27.64
2023-06-30T08:13:17.592Z,27.65
2023-06-30T08:14:17.651Z,27.65
2023-06-30T08:15:17.636Z,27.64
2023-06-30T08:16:17.667Z,27.69
2023-06-30T08:17:31.202Z,27.68
2023-06-30T08:18:28.847Z,27.68
2023-06-30T08:19:45.215Z,27.69
2023-06-30T08:20:18.740Z,27.71
2023-06-30T08:21:17.643Z,27.71
2023-06-30T08:22:17.640Z,27.73
2023-06-30T08:23:17.624Z,27.73
2023-06-30T08:24:17.622Z,27.72
2023-06-30T08:25:17.645Z,27.73
2023-06-30T08:26:17.641Z,27.72
2023-06-30T08:27:17.666Z,27.73
2023-06-30T08:28:17.631Z,27.73
2023-06-30T08:29:17.658Z,27.78
2023-06-30T08:30:17.950Z,27.75
2023-06-30T08:31:17.688Z,27.76
2023-06-30T08:32:17.600Z,27.76
2023-06-30T08:33:30.698Z,27.75
2023-06-30T08:34:18.555Z,27.76
2023-06-30T08:35:17.571Z,27.75
2023-06-30T08:36:17.579Z,27.78
2023-06-30T08:37:17.595Z,27.78
2023-06-30T08:38:17.546Z,27.76
2023-06-30T08:39:17.580Z,27.78
2023-06-30T08:40:17.520Z,27.81
2023-06-30T08:41:17.566Z,27.76
2023-06-30T08:42:17.507Z,27.79
2023-06-30T08:43:18.464Z,27.76
2023-06-30T08:44:17.512Z,27.79
2023-06-30T08:45:17.517Z,27.76
2023-06-30T08:46:17.577Z,27.78
2023-06-30T08:47:17.502Z,27.79
2023-06-30T08:48:17.477Z,27.78
2023-06-30T08:49:17.461Z,27.79
2023-06-30T08:50:17.482Z,27.81
2023-06-30T08:51:17.536Z,27.81
2023-06-30T08:52:17.446Z,27.78
2023-06-30T08:53:17.505Z,27.79
2023-06-30T08:54:17.407Z,27.81
2023-06-30T08:55:17.419Z,27.81
2023-06-30T08:56:17.514Z,27.82
2023-06-30T08:57:17.470Z,27.82
2023-06-30T08:58:25.007Z,27.81
2023-06-30T08:59:18.529Z,27.81
2023-06-30T09:00:17.601Z,27.79
2023-06-30T09:01:17.613Z,27.82
2023-06-30T09:02:17.578Z,27.84
2023-06-30T09:03:17.546Z,27.84
2023-06-30T09:04:17.477Z,27.84
2023-06-30T09:05:17.502Z,27.85
2023-06-30T09:06:17.433Z,27.82
2023-06-30T09:07:17.490Z,27.84
2023-06-30T09:08:17.547Z,27.84
2023-06-30T09:09:17.742Z,27.86
2023-06-30T09:10:17.520Z,27.86
2023-06-30T09:11:17.423Z,27.85
2023-06-30T09:12:17.398Z,27.84
2023-06-30T09:13:17.403Z,27.85
2023-06-30T09:14:17.421Z,27.85
2023-06-30T09:15:17.414Z,27.85
2023-06-30T09:16:19.208Z,27.86
2023-06-30T09:17:17.354Z,27.88
2023-06-30T09:18:17.421Z,27.85
2023-06-30T09:19:17.423Z,27.85
2023-06-30T09:20:17.438Z,27.86
2023-06-30T09:21:17.474Z,27.88
2023-06-30T09:22:53.832Z,27.86
2023-06-30T09:23:18.424Z,27.88
2023-06-30T09:24:17.426Z,27.85
2023-06-30T09:25:17.481Z,27.86
2023-06-30T09:26:17.419Z,27.86
2023-06-30T09:27:17.404Z,27.88
2023-06-30T09:28:17.373Z,27.86
2023-06-30T09:29:17.371Z,27.88
2023-06-30T09:30:17.365Z,27.89
2023-06-30T09:31:17.396Z,27.89
2023-06-30T09:32:17.447Z,27.88
2023-06-30T09:33:17.408Z,27.88
2023-06-30T09:34:17.385Z,27.88
2023-06-30T09:35:17.364Z,27.89
2023-06-30T09:36:17.334Z,27.88
2023-06-30T09:37:17.339Z,27.88
2023-06-30T09:38:17.314Z,27.91
2023-06-30T09:39:17.318Z,27.89
2023-06-30T09:40:17.317Z,27.88
2023-06-30T09:41:17.314Z,27.89
2023-06-30T09:42:17.288Z,27.91
2023-06-30T09:43:17.314Z,27.91
2023-06-30T09:44:17.320Z,27.91
2023-06-30T09:45:17.290Z,27.91
2023-06-30T09:46:17.295Z,27.88
2023-06-30T09:47:17.322Z,27.91
2023-06-30T09:48:17.314Z,27.89
2023-06-30T09:49:17.323Z,27.92
2023-06-30T09:50:17.363Z,27.92
2023-06-30T09:51:17.417Z,27.93
2023-06-30T09:52:17.378Z,27.91
2023-06-30T09:53:18.581Z,27.92
2023-06-30T09:54:17.952Z,27.92
2023-06-30T09:55:17.536Z,27.93
2023-06-30T09:56:17.531Z,27.91
2023-06-30T09:57:17.515Z,27.92
2023-06-30T09:58:17.564Z,27.91
2023-06-30T09:59:17.594Z,27.93
2023-06-30T10:00:30.206Z,27.91
2023-06-30T10:01:18.652Z,27.93
2023-06-30T10:02:17.561Z,27.92
2023-06-30T10:03:17.718Z,27.92
2023-06-30T10:04:17.541Z,27.91
2023-06-30T10:05:17.650Z,27.92
2023-06-30T10:06:17.556Z,27.93
2023-06-30T10:07:17.543Z,27.92
2023-06-30T10:08:17.538Z,27.92
2023-06-30T10:09:17.521Z,27.92
2023-06-30T10:10:17.496Z,27.92
2023-06-30T10:11:17.593Z,27.91
2023-06-30T10:12:17.504Z,27.95
2023-06-30T10:13:17.526Z,27.93
2023-06-30T10:14:17.515Z,27.92
2023-06-30T10:15:17.504Z,27.95
2023-06-30T10:16:17.427Z,27.93
2023-06-30T10:17:17.469Z,27.92
2023-06-30T10:18:17.576Z,27.92
2023-06-30T10:19:17.409Z,27.91
2023-06-30T10:20:17.444Z,27.93
2023-06-30T10:21:17.483Z,27.96
2023-06-30T10:22:17.413Z,27.93
2023-06-30T10:23:17.412Z,27.96
2023-06-30T10:24:17.386Z,27.96
2023-06-30T10:25:17.406Z,27.95
2023-06-30T10:26:17.427Z,27.95
2023-06-30T10:27:17.390Z,27.95
2023-06-30T10:28:17.403Z,27.96
2023-06-30T10:29:17.393Z,27.93
2023-06-30T10:30:17.416Z,27.95
2023-06-30T10:31:17.455Z,27.96
2023-06-30T10:32:17.414Z,27.99
2023-06-30T10:33:17.540Z,27.96
2023-06-30T10:34:17.875Z,27.96
2023-06-30T10:35:18.034Z,27.98
2023-06-30T10:36:17.495Z,27.99
2023-06-30T10:37:17.483Z,27.98
2023-06-30T10:38:17.510Z,27.96
2023-06-30T10:39:17.537Z,27.98
2023-06-30T10:40:17.553Z,27.98
2023-06-30T10:41:17.522Z,27.96
2023-06-30T10:42:17.532Z,27.98
2023-06-30T10:43:17.561Z,27.98
2023-06-30T10:44:17.556Z,28.00
2023-06-30T10:45:17.595Z,27.98
2023-06-30T10:46:17.582Z,28.00
2023-06-30T10:47:17.600Z,27.99
2023-06-30T10:48:17.633Z,27.99
2023-06-30T10:49:17.642Z,27.99
2023-06-30T10:50:17.640Z,27.99
2023-06-30T10:51:17.668Z,28.00
2023-06-30T10:52:17.696Z,27.99
2023-06-30T10:53:17.709Z,28.03
2023-06-30T10:54:17.733Z,28.02
2023-06-30T10:55:17.728Z,28.02
2023-06-30T10:56:17.718Z,28.00
2023-06-30T10:57:17.725Z,28.03
2023-06-30T10:58:17.735Z,28.02
2023-06-30T10:59:17.738Z,28.05
2023-06-30T11:00:17.759Z,28.02
2023-06-30T11:01:17.770Z,28.05
2023-06-30T11:02:17.788Z,28.02
2023-06-30T11:03:17.885Z,28.02
2023-06-30T11:04:17.861Z,28.03
2023-06-30T11:05:17.813Z,28.02
2023-06-30T11:06:17.806Z,28.05
2023-06-30T11:07:17.867Z,28.08
2023-06-30T11:08:17.822Z,28.05
2023-06-30T11:09:17.815Z,28.03
2023-06-30T11:10:17.842Z,28.05
2023-06-30T11:11:17.854Z,28.03
2023-06-30T11:12:17.884Z,28.03
2023-06-30T11:13:17.867Z,28.06
2023-06-30T11:14:17.909Z,28.05
2023-06-30T11:15:17.904Z,28.06
2023-06-30T11:16:17.894Z,28.06
2023-06-30T11:17:17.890Z,28.06
2023-06-30T11:18:18.004Z,28.06
2023-06-30T11:19:17.966Z,28.08
2023-06-30T11:20:17.944Z,28.06
2023-06-30T11:21:17.985Z,28.09
2023-06-30T11:22:17.991Z,28.09
2023-06-30T11:23:17.992Z,28.09
2023-06-30T11:24:18.013Z,28.09
2023-06-30T11:25:18.047Z,28.09
2023-06-30T11:26:18.114Z,28.12
2023-06-30T11:27:18.078Z,28.13
2023-06-30T11:28:18.082Z,28.12
2023-06-30T11:29:18.106Z,28.12
2023-06-30T11:30:18.097Z,28.13
2023-06-30T11:31:18.193Z,28.13
2023-06-30T11:32:18.140Z,28.15
2023-06-30T11:33:18.156Z,28.12
2023-06-30T11:34:18.192Z,28.16
2023-06-30T11:35:18.204Z,28.15
2023-06-30T11:36:18.281Z,28.15
2023-06-30T11:37:18.258Z,28.18
2023-06-30T11:38:18.242Z,28.13
2023-06-30T11:39:18.322Z,28.16
2023-06-30T11:40:18.335Z,28.18
2023-06-30T11:41:18.329Z,28.19
2023-06-30T11:42:18.360Z,28.18
2023-06-30T11:43:18.392Z,28.18
2023-06-30T11:44:18.372Z,28.19
2023-06-30T11:45:18.412Z,28.19
2023-06-30T11:46:18.462Z,28.19
2023-06-30T11:47:18.469Z,28.19
2023-06-30T11:48:18.478Z,28.23
2023-06-30T11:49:18.505Z,28.23
2023-06-30T11:50:21.024Z,28.22
2023-06-30T11:51:18.543Z,28.23
2023-06-30T11:52:18.527Z,28.23
2023-06-30T11:53:18.486Z,28.23
2023-06-30T11:54:18.488Z,28.24
2023-06-30T11:55:18.473Z,28.26
2023-06-30T11:56:18.469Z,28.24
2023-06-30T11:57:18.490Z,28.24
2023-06-30T11:58:18.474Z,28.24
2023-06-30T11:59:18.449Z,28.26
2023-06-30T12:00:18.474Z,28.27
2023-06-30T12:01:18.433Z,28.27
2023-06-30T12:02:18.487Z,28.26
2023-06-30T12:03:18.569Z,28.30
2023-06-30T12:04:18.552Z,28.29
2023-06-30T12:05:18.495Z,28.29
2023-06-30T12:06:18.430Z,28.30
2023-06-30T12:07:18.448Z,28.29
2023-06-30T12:08:18.400Z,28.32
2023-06-30T12:09:18.407Z,28.32
2023-06-30T12:10:18.376Z,28.29
2023-06-30T12:11:18.402Z,28.27
2023-06-30T12:12:18.379Z,28.30
2023-06-30T12:13:18.366Z,28.29
2023-06-30T12:14:18.452Z,28.26
2023-06-30T12:15:18.351Z,28.29
2023-06-30T12:16:18.392Z,28.27
2023-06-30T12:17:18.346Z,28.30
2023-06-30T12:18:18.367Z,28.30
2023-06-30T12:19:18.317Z,28.29
2023-06-30T12:20:18.333Z,28.27
2023-06-30T12:21:18.298Z,28.26
2023-06-30T12:22:18.313Z,28.22
2023-06-30T12:23:18.327Z,28.26
2023-06-30T12:24:18.302Z,28.26
2023-06-30T12:25:18.279Z,28.27
2023-06-30T12:26:18.295Z,28.30
2023-06-30T12:27:18.277Z,28.32
2023-06-30T12:28:18.265Z,28.35
2023-06-30T12:29:18.253Z,28.36
2023-06-30T12:30:18.313Z,28.35
2023-06-30T12:31:18.265Z,28.39
2023-06-30T12:32:18.285Z,28.39
2023-06-30T12:33:18.255Z,28.38
2023-06-30T12:34:18.274Z,28.38
2023-06-30T12:35:18.249Z,28.36
2023-06-30T12:36:18.209Z,28.33
2023-06-30T12:37:18.754Z,28.26
2023-06-30T12:38:18.226Z,28.27
2023-06-30T12:39:18.205Z,28.24
2023-06-30T12:40:18.225Z,28.26
2023-06-30T12:41:18.169Z,28.26
2023-06-30T12:42:18.222Z,28.26
2023-06-30T12:43:18.169Z,28.24
2023-06-30T12:44:18.156Z,28.23
2023-06-30T12:45:18.192Z,28.12
2023-06-30T12:46:18.184Z,28.16
2023-06-30T12:47:18.155Z,28.16
2023-06-30T12:48:18.126Z,28.09
2023-06-30T12:49:18.112Z,28.09
2023-06-30T12:50:18.146Z,28.08
2023-06-30T12:51:18.176Z,28.10
2023-06-30T12:52:18.100Z,28.08
2023-06-30T12:53:18.093Z,28.09
2023-06-30T12:54:18.126Z,28.08
2023-06-30T12:55:18.113Z,28.05
2023-06-30T12:56:18.087Z,28.05
2023-06-30T12:57:18.097Z,28.05
2023-06-30T12:58:18.059Z,28.05
2023-06-30T12:59:18.070Z,28.05
2023-06-30T13:00:18.061Z,28.05
2023-06-30T13:01:18.083Z,28.02
2023-06-30T13:02:18.039Z,28.03
2023-06-30T13:03:18.124Z,28.05
2023-06-30T13:04:18.044Z,28.02
2023-06-30T13:05:18.080Z,28.02
2023-06-30T13:06:18.024Z,27.98
2023-06-30T13:07:18.069Z,28.03
2023-06-30T13:08:18.040Z,27.99
2023-06-30T13:09:18.091Z,27.99
2023-06-30T13:10:18.152Z,27.96
2023-06-30T13:11:18.119Z,27.96
2023-06-30T13:12:18.135Z,27.95
2023-06-30T13:13:18.163Z,27.95
2023-06-30T13:14:18.168Z,27.96
2023-06-30T13:15:18.220Z,27.99
2023-06-30T13:16:18.249Z,27.96
2023-06-30T13:17:18.206Z,27.98
2023-06-30T13:18:18.540Z,27.99
2023-06-30T13:19:18.265Z,28.00
2023-06-30T13:20:18.292Z,27.98
2023-06-30T13:21:18.289Z,27.95
2023-06-30T13:22:18.296Z,27.96
2023-06-30T13:23:31.837Z,27.95
2023-06-30T13:24:19.316Z,27.93
2023-06-30T13:25:18.318Z,27.96
2023-06-30T13:26:18.273Z,27.95
2023-06-30T13:27:18.313Z,27.96
2023-06-30T13:28:18.288Z,27.93
2023-06-30T13:29:18.284Z,27.99
2023-06-30T13:30:18.383Z,27.96
2023-06-30T13:31:18.324Z,27.95
2023-06-30T13:32:18.272Z,27.98
2023-06-30T13:33:19.589Z,27.96
2023-06-30T13:34:18.251Z,27.93
2023-06-30T13:35:18.241Z,27.93
2023-06-30T13:36:18.226Z,27.95
2023-06-30T13:37:18.297Z,27.96
2023-06-30T13:38:18.208Z,27.96
2023-06-30T13:39:18.254Z,27.95
2023-06-30T13:40:18.245Z,27.93
2023-06-30T13:41:18.263Z,27.91
2023-06-30T13:42:18.290Z,27.93
2023-06-30T13:43:18.285Z,27.93
2023-06-30T13:44:18.320Z,27.95
2023-06-30T13:45:18.291Z,27.88
2023-06-30T13:46:18.445Z,27.86
2023-06-30T13:47:18.325Z,27.89
2023-06-30T13:48:18.336Z,27.85
2023-06-30T13:49:18.378Z,27.89
2023-06-30T13:50:18.458Z,27.91
2023-06-30T13:51:18.419Z,27.92
2023-06-30T13:52:18.415Z,27.92
2023-06-30T13:53:18.462Z,27.92
2023-06-30T13:54:18.517Z,27.92
2023-06-30T13:55:18.494Z,27.95
2023-06-30T13:56:18.492Z,27.93
2023-06-30T13:57:18.488Z,27.92
2023-06-30T13:58:18.511Z,27.91
2023-06-30T13:59:18.551Z,27.91
2023-06-30T14:00:18.549Z,27.95
2023-06-30T14:01:18.562Z,27.86
2023-06-30T14:02:18.610Z,27.89
2023-06-30T14:03:18.743Z,27.88
2023-06-30T14:04:18.729Z,27.88
2023-06-30T14:05:18.694Z,27.92
2023-06-30T14:06:18.629Z,27.91
2023-06-30T14:07:18.660Z,27.93
2023-06-30T14:08:18.663Z,27.95
2023-06-30T14:09:18.657Z,27.98
2023-06-30T14:10:18.666Z,28.00
2023-06-30T14:11:18.736Z,28.02
2023-06-30T14:12:18.725Z,28.02
2023-06-30T14:13:18.742Z,28.05
2023-06-30T14:14:18.761Z,28.02
2023-06-30T14:15:20.817Z,28.05
2023-06-30T14:16:18.815Z,28.06
2023-06-30T14:17:18.768Z,28.08
2023-06-30T14:18:18.797Z,28.05
2023-06-30T14:19:18.842Z,28.08
2023-06-30T14:20:18.822Z,28.10
2023-06-30T14:21:19.519Z,28.09
2023-06-30T14:22:18.973Z,28.13
2023-06-30T14:23:18.880Z,28.12
2023-06-30T14:24:19.483Z,28.10
2023-06-30T14:25:18.852Z,28.09
2023-06-30T14:26:18.883Z,28.10
2023-06-30T14:27:18.923Z,28.10
2023-06-30T14:28:18.929Z,28.10
2023-06-30T14:29:19.024Z,28.10
2023-06-30T14:30:18.906Z,28.10
2023-06-30T14:31:19.159Z,28.12
2023-06-30T14:32:19.513Z,28.12
2023-06-30T14:33:18.989Z,28.12
2023-06-30T14:34:18.985Z,28.12
2023-06-30T14:35:18.980Z,28.13
2023-06-30T14:36:19.030Z,28.13
2023-06-30T14:37:19.057Z,28.12
2023-06-30T14:38:21.264Z,28.12
2023-06-30T14:39:19.052Z,28.13
2023-06-30T14:40:19.033Z,28.12
2023-06-30T14:41:19.032Z,28.16
2023-06-30T14:42:31.009Z,28.13
2023-06-30T14:43:20.081Z,28.13
2023-06-30T14:44:19.037Z,28.13
2023-06-30T14:45:18.990Z,28.13
2023-06-30T14:46:19.178Z,28.13
2023-06-30T14:47:18.984Z,28.15
2023-06-30T14:48:18.993Z,28.12
2023-06-30T14:49:18.975Z,28.13
2023-06-30T14:50:18.963Z,28.13
2023-06-30T14:51:19.027Z,28.10
2023-06-30T14:52:18.962Z,28.15
2023-06-30T14:53:18.947Z,28.12
2023-06-30T14:54:18.944Z,28.13
2023-06-30T14:55:18.928Z,28.13
2023-06-30T14:56:18.934Z,28.15
2023-06-30T14:57:18.960Z,28.10
2023-06-30T14:58:18.924Z,28.12
2023-06-30T14:59:18.906Z,28.12
2023-06-30T15:00:18.903Z,28.12
2023-06-30T15:01:18.885Z,28.15
2023-06-30T15:02:19.070Z,28.12
2023-06-30T15:03:18.973Z,28.10
2023-06-30T15:04:18.941Z,28.12
2023-06-30T15:05:18.943Z,28.15
2023-06-30T15:06:18.935Z,28.13
2023-06-30T15:07:18.931Z,28.12
2023-06-30T15:08:18.952Z,28.12
2023-06-30T15:09:19.010Z,28.13
2023-06-30T15:10:19.018Z,28.13
2023-06-30T15:11:18.976Z,28.13
2023-06-30T15:12:18.991Z,28.13
2023-06-30T15:13:19.009Z,28.12
2023-06-30T15:14:18.989Z,28.13
2023-06-30T15:15:19.001Z,28.13
2023-06-30T15:16:19.031Z,28.12
2023-06-30T15:17:19.041Z,28.12
2023-06-30T15:18:19.026Z,28.10
2023-06-30T15:19:19.104Z,28.13
2023-06-30T15:20:19.111Z,28.13
2023-06-30T15:21:19.070Z,28.16
2023-06-30T15:22:19.087Z,28.13
2023-06-30T15:23:19.087Z,28.13
2023-06-30T15:24:19.120Z,28.13
2023-06-30T15:25:19.123Z,28.13
2023-06-30T15:26:19.124Z,28.15
2023-06-30T15:27:19.122Z,28.19
2023-06-30T15:28:19.117Z,28.16
2023-06-30T15:29:19.140Z,28.13
2023-06-30T15:30:19.132Z,28.16
2023-06-30T15:31:19.211Z,28.15
2023-06-30T15:32:19.288Z,28.16
2023-06-30T15:33:19.331Z,28.15
2023-06-30T15:34:19.259Z,28.15
2023-06-30T15:35:19.345Z,28.16
2023-06-30T15:36:19.327Z,28.16
2023-06-30T15:37:19.347Z,28.18
2023-06-30T15:38:19.347Z,28.16
2023-06-30T15:39:19.364Z,28.18
2023-06-30T15:40:19.411Z,28.19
2023-06-30T15:41:23.066Z,28.18
2023-06-30T15:42:19.474Z,28.16
2023-06-30T15:43:19.427Z,28.16
2023-06-30T15:44:19.399Z,28.19
2023-06-30T15:45:19.392Z,28.19
2023-06-30T15:46:19.419Z,28.15
2023-06-30T15:47:19.469Z,28.18
2023-06-30T15:48:19.360Z,28.22
2023-06-30T15:49:19.387Z,28.22
2023-06-30T15:50:19.419Z,28.22
2023-06-30T15:51:19.364Z,28.23
2023-06-30T15:52:19.375Z,28.23
2023-06-30T15:53:19.422Z,28.23
2023-06-30T15:54:19.370Z,28.23
2023-06-30T15:56:07.449Z,28.19
2023-06-30T15:57:07.402Z,28.20
2023-06-30T15:58:07.429Z,28.20
2023-06-30T15:59:07.408Z,28.22
2023-06-30T16:00:07.412Z,28.19
2023-06-30T16:01:07.398Z,28.19
2023-06-30T16:02:07.401Z,28.20
2023-06-30T16:03:07.560Z,28.22
2023-06-30T16:04:07.510Z,28.20
2023-06-30T16:05:07.516Z,28.20
2023-06-30T16:06:07.469Z,28.20
2023-06-30T16:07:07.371Z,28.18
2023-06-30T16:08:07.354Z,28.18
2023-06-30T16:09:07.346Z,28.20
2023-06-30T16:10:07.367Z,28.18
2023-06-30T16:11:07.357Z,28.19
2023-06-30T16:12:07.318Z,28.20
2023-06-30T16:13:10.871Z,28.16
2023-06-30T16:14:08.301Z,28.18
2023-06-30T16:15:07.341Z,28.19
2023-06-30T16:16:07.324Z,28.18
2023-06-30T16:17:07.310Z,28.16
2023-06-30T16:18:07.374Z,28.19
2023-06-30T16:19:07.275Z,28.18
2023-06-30T16:20:07.307Z,28.19
2023-06-30T16:21:07.299Z,28.18
2023-06-30T16:22:07.270Z,28.18
2023-06-30T16:23:07.270Z,28.16
2023-06-30T16:24:07.276Z,28.18
2023-06-30T16:25:07.244Z,28.15
2023-06-30T16:26:08.727Z,28.15
2023-06-30T16:27:07.220Z,28.16
2023-06-30T16:28:07.281Z,28.16
2023-06-30T16:29:07.262Z,28.16
2023-06-30T16:30:07.271Z,28.13
2023-06-30T16:31:07.295Z,28.10
2023-06-30T16:32:07.306Z,28.12
2023-06-30T16:33:07.386Z,28.12
2023-06-30T16:34:07.480Z,28.12
2023-06-30T16:35:07.293Z,28.13
2023-06-30T16:36:07.329Z,28.12
2023-06-30T16:37:07.339Z,28.12
2023-06-30T16:38:07.394Z,28.12
2023-06-30T16:39:07.416Z,28.08
2023-06-30T16:40:07.401Z,28.10
2023-06-30T16:41:07.425Z,28.13
2023-06-30T16:42:07.436Z,28.09
2023-06-30T16:43:07.441Z,28.10
2023-06-30T16:44:07.489Z,28.10
2023-06-30T16:45:07.486Z,28.10
2023-06-30T16:46:07.477Z,28.10
2023-06-30T16:47:07.558Z,28.10
2023-06-30T16:48:07.583Z,28.09
2023-06-30T16:49:07.522Z,28.08
2023-06-30T16:50:07.567Z,28.09
2023-06-30T16:51:07.605Z,28.08
2023-06-30T16:52:07.554Z,28.06
2023-06-30T16:53:07.592Z,28.08
2023-06-30T16:54:07.605Z,28.10
2023-06-30T16:55:07.640Z,28.08
2023-06-30T16:56:07.687Z,28.10
2023-06-30T16:57:07.677Z,28.08
2023-06-30T16:58:07.695Z,28.06
2023-06-30T16:59:07.704Z,28.06
2023-06-30T17:00:07.713Z,28.09
